sensor_id;sensor_type;location;lat;lon;timestamp;pressure;altitude;pressure_sealevel;temperature;humidity
42945;BME280;28584;42.636;23.294;2023-02-11T00:00:29;157399.28;;;-4.40;100.00
42945;BME280;28584;42.636;23.294;2023-02-11T00:02:55;157391.34;;;-4.43;100.00
42945;BME280;28584;42.636;23.294;2023-02-11T00:05:20;157390.00;;;-4.44;100.00
42945;BME280;28584;42.636;23.294;2023-02-11T00:07:45;157372.88;;;-4.50;100.00
42945;BME280;28584;42.636;23.294;2023-02-11T00:10:11;157332.00;;;-4.66;100.00
42945;BME280;28584;42.636;23.294;2023-02-11T00:12:36;157328.03;;;-4.67;100.00
42945;BME280;28584;42.636;23.294;2023-02-11T00:15:03;157317.50;;;-4.71;100.00
42945;BME280;28584;42.636;23.294;2023-02-11T00:17:29;157322.78;;;-4.69;100.00
42945;BME280;28584;42.636;23.294;2023-02-11T00:19:54;157314.88;;;-4.72;100.00
42945;BME280;28584;42.636;23.294;2023-02-11T00:22:19;157354.41;;;-4.57;100.00
42945;BME280;28584;42.636;23.294;2023-02-11T00:24:45;157324.06;;;-4.69;100.00
42945;BME280;28584;42.636;23.294;2023-02-11T00:27:11;157293.75;;;-4.80;100.00
42945;BME280;28584;42.636;23.294;2023-02-11T00:29:37;157280.56;;;-4.85;100.00
42945;BME280;28584;42.636;23.294;2023-02-11T00:32:03;157248.91;;;-4.97;100.00
42945;BME280;28584;42.636;23.294;2023-02-11T00:34:32;157208.09;;;-5.13;100.00
42945;BME280;28584;42.636;23.294;2023-02-11T00:36:58;157171.13;;;-5.27;100.00
42945;BME280;28584;42.636;23.294;2023-02-11T00:39:24;157159.31;;;-5.31;100.00
42945;BME280;28584;42.636;23.294;2023-02-11T00:41:49;157209.38;;;-5.12;100.00
42945;BME280;28584;42.636;23.294;2023-02-11T00:44:15;157209.38;;;-5.12;100.00
42945;BME280;28584;42.636;23.294;2023-02-11T00:46:40;157234.41;;;-5.03;100.00
42945;BME280;28584;42.636;23.294;2023-02-11T00:49:05;157275.28;;;-4.87;100.00
42945;BME280;28584;42.636;23.294;2023-02-11T00:51:31;157248.91;;;-4.97;100.00
42945;BME280;28584;42.636;23.294;2023-02-11T00:53:56;157280.56;;;-4.85;100.00
42945;BME280;28584;42.636;23.294;2023-02-11T00:56:22;157289.78;;;-4.82;100.00
42945;BME280;28584;42.636;23.294;2023-02-11T00:58:48;157243.66;;;-4.99;100.00
42945;BME280;28584;42.636;23.294;2023-02-11T01:01:13;157241.03;;;-5.00;100.00
42945;BME280;28584;42.636;23.294;2023-02-11T01:03:39;157227.81;;;-5.05;100.00
42945;BME280;28584;42.636;23.294;2023-02-11T01:06:07;157217.28;;;-5.09;100.00
42945;BME280;28584;42.636;23.294;2023-02-11T01:08:32;157188.28;;;-5.20;100.00
42945;BME280;28584;42.636;23.294;2023-02-11T01:11:00;157190.91;;;-5.19;100.00
42945;BME280;28584;42.636;23.294;2023-02-11T01:13:27;157194.88;;;-5.18;100.00
42945;BME280;28584;42.636;23.294;2023-02-11T01:15:53;157155.34;;;-5.33;100.00
42945;BME280;28584;42.636;23.294;2023-02-11T01:18:19;157135.56;;;-5.40;100.00
42945;BME280;28584;42.636;23.294;2023-02-11T01:20:44;157167.22;;;-5.28;100.00
42945;BME280;28584;42.636;23.294;2023-02-11T01:23:10;157140.84;;;-5.38;100.00
42945;BME280;28584;42.636;23.294;2023-02-11T01:25:35;157098.66;;;-5.54;100.00
42945;BME280;28584;42.636;23.294;2023-02-11T01:28:01;157085.50;;;-5.59;100.00
42945;BME280;28584;42.636;23.294;2023-02-11T01:30:26;157086.78;;;-5.59;100.00
42945;BME280;28584;42.636;23.294;2023-02-11T01:32:52;157082.84;;;-5.60;100.00
42945;BME280;28584;42.636;23.294;2023-02-11T01:35:17;157067.06;;;-5.66;100.00
42945;BME280;28584;42.636;23.294;2023-02-11T01:37:43;157035.41;;;-5.79;100.00
42945;BME280;28584;42.636;23.294;2023-02-11T01:40:15;157040.72;;;-5.77;100.00
42945;BME280;28584;42.636;23.294;2023-02-11T01:42:42;157036.75;;;-5.78;100.00
42945;BME280;28584;42.636;23.294;2023-02-11T01:48:33;157063.09;;;-5.68;100.00
42945;BME280;28584;42.636;23.294;2023-02-11T01:51:04;157036.75;;;-5.78;100.00
42945;BME280;28584;42.636;23.294;2023-02-11T01:53:31;157003.88;;;-5.91;100.00
42945;BME280;28584;42.636;23.294;2023-02-11T01:56:16;156993.28;;;-5.95;100.00
42945;BME280;28584;42.636;23.294;2023-02-11T01:59:12;157015.69;;;-5.86;100.00
42945;BME280;28584;42.636;23.294;2023-02-11T02:01:45;156990.66;;;-5.96;100.00
42945;BME280;28584;42.636;23.294;2023-02-11T02:04:14;156948.56;;;-6.12;100.00
42945;BME280;28584;42.636;23.294;2023-02-11T02:07:02;156899.81;;;-6.30;100.00
42945;BME280;28584;42.636;23.294;2023-02-11T02:09:35;156893.19;;;-6.33;100.00
42945;BME280;28584;42.636;23.294;2023-02-11T02:12:01;156916.91;;;-6.24;100.00
42945;BME280;28584;42.636;23.294;2023-02-11T02:14:26;156970.91;;;-6.03;100.00
42945;BME280;28584;42.636;23.294;2023-02-11T02:16:53;156949.84;;;-6.11;100.00
42945;BME280;28584;42.636;23.294;2023-02-11T02:28:06;156948.56;;;-6.12;100.00
42945;BME280;28584;42.636;23.294;2023-02-11T02:38:36;156997.25;;;-5.93;100.00
42945;BME280;28584;42.636;23.294;2023-02-11T02:41:03;157031.47;;;-5.80;100.00
42945;BME280;28584;42.636;23.294;2023-02-11T02:43:31;157042.00;;;-5.76;100.00
42945;BME280;28584;42.636;23.294;2023-02-11T02:48:41;157077.59;;;-5.62;100.00
42945;BME280;28584;42.636;23.294;2023-02-11T02:57:21;157074.91;;;-5.63;100.00
42945;BME280;28584;42.636;23.294;2023-02-11T03:05:39;157072.31;;;-5.64;100.00
42945;BME280;28584;42.636;23.294;2023-02-11T03:08:27;157098.66;;;-5.54;98.15
42945;BME280;28584;42.636;23.294;2023-02-11T03:10:55;157109.19;;;-5.50;98.14
42945;BME280;28584;42.636;23.294;2023-02-11T03:13:26;157111.81;;;-5.49;99.28
42945;BME280;28584;42.636;23.294;2023-02-11T03:15:54;157105.25;;;-5.52;100.00
42945;BME280;28584;42.636;23.294;2023-02-11T03:18:23;157100.00;;;-5.54;100.00
42945;BME280;28584;42.636;23.294;2023-02-11T03:20:52;157080.22;;;-5.61;100.00
42945;BME280;28584;42.636;23.294;2023-02-11T03:23:28;157123.69;;;-5.45;98.32
42945;BME280;28584;42.636;23.294;2023-02-11T03:26:34;157156.63;;;-5.32;93.17
42945;BME280;28584;42.636;23.294;2023-02-11T03:32:22;157157.97;;;-5.32;89.94
42945;BME280;28584;42.636;23.294;2023-02-11T03:37:09;157142.13;;;-5.38;87.34
42945;BME280;28584;42.636;23.294;2023-02-11T03:39:40;157114.50;;;-5.48;86.86
42945;BME280;28584;42.636;23.294;2023-02-11T03:42:08;157103.97;;;-5.52;85.09
42945;BME280;28584;42.636;23.294;2023-02-11T03:44:43;157115.78;;;-5.48;84.86
42945;BME280;28584;42.636;23.294;2023-02-11T03:47:12;157094.72;;;-5.56;84.41
42945;BME280;28584;42.636;23.294;2023-02-11T03:49:42;157072.31;;;-5.64;85.09
42945;BME280;28584;42.636;23.294;2023-02-11T03:52:10;157069.69;;;-5.65;85.93
42945;BME280;28584;42.636;23.294;2023-02-11T03:54:38;157076.25;;;-5.63;85.92
42945;BME280;28584;42.636;23.294;2023-02-11T03:57:06;157060.44;;;-5.69;86.89
42945;BME280;28584;42.636;23.294;2023-02-11T03:59:48;157042.00;;;-5.76;88.75
42945;BME280;28584;42.636;23.294;2023-02-11T04:02:14;156998.59;;;-5.93;90.80
42945;BME280;28584;42.636;23.294;2023-02-11T04:04:39;156957.75;;;-6.08;92.18
42945;BME280;28584;42.636;23.294;2023-02-11T04:07:05;157006.50;;;-5.90;91.65
42945;BME280;28584;42.636;23.294;2023-02-11T04:09:30;157045.94;;;-5.75;88.43
42945;BME280;28584;42.636;23.294;2023-02-11T04:11:55;157003.88;;;-5.91;88.57
42945;BME280;28584;42.636;23.294;2023-02-11T04:14:21;156964.31;;;-6.06;90.39
42945;BME280;28584;42.636;23.294;2023-02-11T04:16:46;156927.44;;;-6.20;92.21
42945;BME280;28584;42.636;23.294;2023-02-11T04:19:11;156943.25;;;-6.14;91.79
42945;BME280;28584;42.636;23.294;2023-02-11T04:21:37;156957.75;;;-6.08;91.70
42945;BME280;28584;42.636;23.294;2023-02-11T04:24:02;156978.81;;;-6.00;91.41
42945;BME280;28584;42.636;23.294;2023-02-11T04:26:28;156947.22;;;-6.12;93.03
42945;BME280;28584;42.636;23.294;2023-02-11T04:28:53;156919.53;;;-6.23;96.53
42945;BME280;28584;42.636;23.294;2023-02-11T04:31:18;156874.78;;;-6.40;98.20
42945;BME280;28584;42.636;23.294;2023-02-11T04:33:44;156832.66;;;-6.56;100.00
42945;BME280;28584;42.636;23.294;2023-02-11T04:36:09;156806.34;;;-6.66;100.00
42945;BME280;28584;42.636;23.294;2023-02-11T04:38:35;156877.44;;;-6.39;100.00
42945;BME280;28584;42.636;23.294;2023-02-11T04:41:00;156887.97;;;-6.35;100.00
42945;BME280;28584;42.636;23.294;2023-02-11T04:43:26;156855.06;;;-6.47;100.00
42945;BME280;28584;42.636;23.294;2023-02-11T04:45:55;156823.44;;;-6.59;100.00
42945;BME280;28584;42.636;23.294;2023-02-11T04:48:21;156816.84;;;-6.62;100.00
42945;BME280;28584;42.636;23.294;2023-02-11T04:50:46;156806.34;;;-6.66;100.00
42945;BME280;28584;42.636;23.294;2023-02-11T04:53:11;156805.00;;;-6.66;100.00
42945;BME280;28584;42.636;23.294;2023-02-11T04:55:37;156783.94;;;-6.74;100.00
42945;BME280;28584;42.636;23.294;2023-02-11T04:58:02;156837.91;;;-6.54;100.00
42945;BME280;28584;42.636;23.294;2023-02-11T05:00:27;156878.72;;;-6.38;100.00
42945;BME280;28584;42.636;23.294;2023-02-11T05:02:53;156869.53;;;-6.42;100.00
42945;BME280;28584;42.636;23.294;2023-02-11T05:05:18;156822.16;;;-6.60;100.00
42945;BME280;28584;42.636;23.294;2023-02-11T05:07:43;156795.81;;;-6.70;100.00
42945;BME280;28584;42.636;23.294;2023-02-11T05:10:09;156749.72;;;-6.87;100.00
42945;BME280;28584;42.636;23.294;2023-02-11T05:12:34;156722.09;;;-6.98;100.00
42945;BME280;28584;42.636;23.294;2023-02-11T05:15:00;156743.16;;;-6.90;100.00
42945;BME280;28584;42.636;23.294;2023-02-11T05:17:25;156766.84;;;-6.81;100.00
42945;BME280;28584;42.636;23.294;2023-02-11T05:19:50;156789.25;;;-6.72;100.00
42945;BME280;28584;42.636;23.294;2023-02-11T05:22:16;156755.00;;;-6.85;100.00
42945;BME280;28584;42.636;23.294;2023-02-11T05:24:41;156769.47;;;-6.80;100.00
42945;BME280;28584;42.636;23.294;2023-02-11T05:27:06;156751.06;;;-6.87;100.00
42945;BME280;28584;42.636;23.294;2023-02-11T05:29:32;156736.56;;;-6.92;100.00
42945;BME280;28584;42.636;23.294;2023-02-11T05:31:58;156715.50;;;-7.00;100.00
42945;BME280;28584;42.636;23.294;2023-02-11T05:34:23;156694.44;;;-7.08;100.00
42945;BME280;28584;42.636;23.294;2023-02-11T05:36:49;156685.28;;;-7.12;100.00
42945;BME280;28584;42.636;23.294;2023-02-11T05:39:14;156647.09;;;-7.26;100.00
42945;BME280;28584;42.636;23.294;2023-02-11T05:41:39;156661.56;;;-7.21;100.00
42945;BME280;28584;42.636;23.294;2023-02-11T05:44:05;156764.19;;;-6.82;100.00
42945;BME280;28584;42.636;23.294;2023-02-11T05:46:30;156816.84;;;-6.62;100.00
42945;BME280;28584;42.636;23.294;2023-02-11T05:48:56;156860.28;;;-6.45;100.00
42945;BME280;28584;42.636;23.294;2023-02-11T05:51:21;156901.09;;;-6.30;100.00
42945;BME280;28584;42.636;23.294;2023-02-11T05:53:47;156903.78;;;-6.29;100.00
42945;BME280;28584;42.636;23.294;2023-02-11T05:56:12;156914.31;;;-6.25;100.00
42945;BME280;28584;42.636;23.294;2023-02-11T05:58:39;156931.41;;;-6.18;100.00
42945;BME280;28584;42.636;23.294;2023-02-11T06:01:04;156967.00;;;-6.05;100.00
42945;BME280;28584;42.636;23.294;2023-02-11T06:03:29;156986.72;;;-5.97;100.00
42945;BME280;28584;42.636;23.294;2023-02-11T06:05:55;156989.38;;;-5.96;100.00
42945;BME280;28584;42.636;23.294;2023-02-11T06:08:20;156995.97;;;-5.94;100.00
42945;BME280;28584;42.636;23.294;2023-02-11T06:10:46;157034.09;;;-5.79;100.00
42945;BME280;28584;42.636;23.294;2023-02-11T06:13:11;157092.09;;;-5.57;100.00
42945;BME280;28584;42.636;23.294;2023-02-11T06:15:37;157140.84;;;-5.38;100.00
42945;BME280;28584;42.636;23.294;2023-02-11T06:18:02;157157.97;;;-5.32;100.00
42945;BME280;28584;42.636;23.294;2023-02-11T06:20:28;157229.16;;;-5.05;100.00
42945;BME280;28584;42.636;23.294;2023-02-11T06:22:54;157275.28;;;-4.87;100.00
42945;BME280;28584;42.636;23.294;2023-02-11T06:25:19;157317.50;;;-4.71;98.54
42945;BME280;28584;42.636;23.294;2023-02-11T06:27:44;157279.25;;;-4.86;96.33
42945;BME280;28584;42.636;23.294;2023-02-11T06:30:10;157322.78;;;-4.69;95.78
42945;BME280;28584;42.636;23.294;2023-02-11T06:32:36;157380.81;;;-4.47;93.97
42945;BME280;28584;42.636;23.294;2023-02-11T06:35:01;157483.69;;;-4.08;91.66
42945;BME280;28584;42.636;23.294;2023-02-11T06:37:26;157528.56;;;-3.91;89.42
42945;BME280;28584;42.636;23.294;2023-02-11T06:39:52;157570.81;;;-3.75;86.98
42945;BME280;28584;42.636;23.294;2023-02-11T06:42:17;157573.44;;;-3.74;85.21
42945;BME280;28584;42.636;23.294;2023-02-11T06:44:42;157545.75;;;-3.85;87.34
42945;BME280;28584;42.636;23.294;2023-02-11T06:47:08;157533.88;;;-3.89;87.31
42945;BME280;28584;42.636;23.294;2023-02-11T06:49:34;157399.28;;;-4.40;90.11
42945;BME280;28584;42.636;23.294;2023-02-11T06:51:59;157498.22;;;-4.03;92.26
42945;BME280;28584;42.636;23.294;2023-02-11T06:54:24;157467.84;;;-4.14;90.46
42945;BME280;28584;42.636;23.294;2023-02-11T06:56:50;157504.84;;;-4.00;90.71
42945;BME280;28584;42.636;23.294;2023-02-11T06:59:17;157536.50;;;-3.88;86.37
42945;BME280;28584;42.636;23.294;2023-02-11T07:01:44;157479.72;;;-4.10;84.92
42945;BME280;28584;42.636;23.294;2023-02-11T07:04:10;157525.94;;;-3.92;88.25
42945;BME280;28584;42.636;23.294;2023-02-11T07:06:35;157548.38;;;-3.84;84.75
42945;BME280;28584;42.636;23.294;2023-02-11T07:09:04;157580.03;;;-3.72;80.79
42945;BME280;28584;42.636;23.294;2023-02-11T07:11:30;157741.13;;;-3.11;77.17
42945;BME280;28584;42.636;23.294;2023-02-11T07:14:00;157647.38;;;-3.46;74.39
42945;BME280;28584;42.636;23.294;2023-02-11T07:16:26;157750.34;;;-3.07;73.14
42945;BME280;28584;42.636;23.294;2023-02-11T07:18:51;157873.22;;;-2.60;70.98
42945;BME280;28584;42.636;23.294;2023-02-11T07:21:19;157867.94;;;-2.62;68.38
42945;BME280;28584;42.636;23.294;2023-02-11T07:23:45;157869.25;;;-2.62;67.98
42945;BME280;28584;42.636;23.294;2023-02-11T07:26:14;157837.56;;;-2.74;67.28
42945;BME280;28584;42.636;23.294;2023-02-11T07:28:40;157883.81;;;-2.56;67.48
42945;BME280;28584;42.636;23.294;2023-02-11T07:33:32;157861.34;;;-2.65;65.94
42945;BME280;28584;42.636;23.294;2023-02-11T07:35:59;157890.41;;;-2.54;64.93
42945;BME280;28584;42.636;23.294;2023-02-11T07:38:25;157890.41;;;-2.54;63.68
42945;BME280;28584;42.636;23.294;2023-02-11T07:40:51;157889.06;;;-2.54;63.88
42945;BME280;28584;42.636;23.294;2023-02-11T07:43:16;157940.59;;;-2.35;64.41
42945;BME280;28584;42.636;23.294;2023-02-11T07:45:41;157974.97;;;-2.22;64.82
42945;BME280;28584;42.636;23.294;2023-02-11T07:48:07;157990.84;;;-2.16;64.41
42945;BME280;28584;42.636;23.294;2023-02-11T07:50:32;157956.47;;;-2.29;63.86
42945;BME280;28584;42.636;23.294;2023-02-11T07:52:57;157940.59;;;-2.35;62.95
42945;BME280;28584;42.636;23.294;2023-02-11T07:55:23;157930.03;;;-2.39;63.82
42945;BME280;28584;42.636;23.294;2023-02-11T07:57:48;158037.09;;;-1.98;65.41
42945;BME280;28584;42.636;23.294;2023-02-11T08:00:15;158017.31;;;-2.06;62.48
42945;BME280;28584;42.636;23.294;2023-02-11T08:02:41;158104.53;;;-1.73;61.68
42945;BME280;28584;42.636;23.294;2023-02-11T08:05:06;158117.78;;;-1.68;61.48
42945;BME280;28584;42.636;23.294;2023-02-11T08:07:32;158146.88;;;-1.57;60.93
42945;BME280;28584;42.636;23.294;2023-02-11T08:09:57;158193.13;;;-1.39;59.72
42945;BME280;28584;42.636;23.294;2023-02-11T08:12:22;158022.56;;;-2.04;60.54
42945;BME280;28584;42.636;23.294;2023-02-11T08:14:48;157893.03;;;-2.53;61.16
42945;BME280;28584;42.636;23.294;2023-02-11T08:17:13;157996.13;;;-2.14;62.70
42945;BME280;28584;42.636;23.294;2023-02-11T08:19:39;157927.41;;;-2.40;62.30
42945;BME280;28584;42.636;23.294;2023-02-11T08:22:04;158027.88;;;-2.02;63.27
42945;BME280;28584;42.636;23.294;2023-02-11T08:24:29;158041.06;;;-1.97;63.33
42945;BME280;28584;42.636;23.294;2023-02-11T08:26:55;158082.06;;;-1.81;63.05
42945;BME280;28584;42.636;23.294;2023-02-11T08:29:20;158131.00;;;-1.63;64.05
42945;BME280;28584;42.636;23.294;2023-02-11T08:31:46;158170.66;;;-1.48;63.69
42945;BME280;28584;42.636;23.294;2023-02-11T08:34:13;158107.16;;;-1.72;63.78
42945;BME280;28584;42.636;23.294;2023-02-11T08:36:40;158157.44;;;-1.53;62.59
42945;BME280;28584;42.636;23.294;2023-02-11T08:39:18;157984.22;;;-2.18;62.86
42945;BME280;28584;42.636;23.294;2023-02-11T08:41:44;157978.94;;;-2.20;63.51
42945;BME280;28584;42.636;23.294;2023-02-11T08:44:10;158015.97;;;-2.06;64.06
42945;BME280;28584;42.636;23.294;2023-02-11T08:46:35;158067.50;;;-1.87;64.23
42945;BME280;28584;42.636;23.294;2023-02-11T08:49:01;158124.38;;;-1.65;64.71
42945;BME280;28584;42.636;23.294;2023-02-11T08:51:28;158083.41;;;-1.81;63.28
42945;BME280;28584;42.636;23.294;2023-02-11T08:53:55;158107.16;;;-1.72;64.03
42945;BME280;28584;42.636;23.294;2023-02-11T08:56:22;158107.16;;;-1.72;65.69
42945;BME280;28584;42.636;23.294;2023-02-11T08:58:48;158223.56;;;-1.28;65.61
42945;BME280;28584;42.636;23.294;2023-02-11T09:01:32;158173.31;;;-1.47;67.95
42945;BME280;28584;42.636;23.294;2023-02-11T09:03:58;158202.41;;;-1.36;68.73
42945;BME280;28584;42.636;23.294;2023-02-11T09:06:24;158187.88;;;-1.41;69.26
42945;BME280;28584;42.636;23.294;2023-02-11T09:08:52;158190.50;;;-1.40;69.44
42945;BME280;28584;42.636;23.294;2023-02-11T09:11:20;158096.59;;;-1.76;69.10
42945;BME280;28584;42.636;23.294;2023-02-11T09:13:46;158059.56;;;-1.90;71.05
42945;BME280;28584;42.636;23.294;2023-02-11T09:16:20;158087.38;;;-1.79;72.77
42945;BME280;28584;42.636;23.294;2023-02-11T09:18:47;158022.56;;;-2.04;71.75
42945;BME280;28584;42.636;23.294;2023-02-11T09:21:13;158015.97;;;-2.06;74.67
42945;BME280;28584;42.636;23.294;2023-02-11T09:23:39;158038.44;;;-1.98;72.88
42945;BME280;28584;42.636;23.294;2023-02-11T09:26:09;158099.28;;;-1.75;72.72
42945;BME280;28584;42.636;23.294;2023-02-11T09:28:35;158059.56;;;-1.90;67.31
42945;BME280;28584;42.636;23.294;2023-02-11T09:31:12;158093.97;;;-1.77;67.39
42945;BME280;28584;42.636;23.294;2023-02-11T09:33:38;158100.56;;;-1.74;68.79
42945;BME280;28584;42.636;23.294;2023-02-11T09:36:06;157993.50;;;-2.15;68.45
42945;BME280;28584;42.636;23.294;2023-02-11T09:38:32;157988.19;;;-2.17;70.77
42945;BME280;28584;42.636;23.294;2023-02-11T09:40:58;158078.09;;;-1.83;72.21
42945;BME280;28584;42.636;23.294;2023-02-11T09:43:31;158050.34;;;-1.93;69.87
42945;BME280;28584;42.636;23.294;2023-02-11T09:46:00;158050.34;;;-1.93;69.31
42945;BME280;28584;42.636;23.294;2023-02-11T09:48:25;158078.09;;;-1.83;69.80
42945;BME280;28584;42.636;23.294;2023-02-11T09:50:54;158009.38;;;-2.09;70.83
42945;BME280;28584;42.636;23.294;2023-02-11T09:53:27;158083.41;;;-1.81;74.28
42945;BME280;28584;42.636;23.294;2023-02-11T09:56:11;158059.56;;;-1.90;75.25
42945;BME280;28584;42.636;23.294;2023-02-11T09:58:41;158148.16;;;-1.56;75.70
42945;BME280;28584;42.636;23.294;2023-02-11T10:06:51;158175.97;;;-1.46;70.20
42945;BME280;28584;42.636;23.294;2023-02-11T10:17:38;158170.66;;;-1.48;64.94
42945;BME280;28584;42.636;23.294;2023-02-11T10:22:50;158175.97;;;-1.46;64.51
42945;BME280;28584;42.636;23.294;2023-02-11T10:25:21;158216.97;;;-1.30;63.45
42945;BME280;28584;42.636;23.294;2023-02-11T10:27:48;158227.53;;;-1.26;63.02
42945;BME280;28584;42.636;23.294;2023-02-11T10:30:30;158291.03;;;-1.02;63.14
42945;BME280;28584;42.636;23.294;2023-02-11T10:33:10;158281.81;;;-1.06;61.57
42945;BME280;28584;42.636;23.294;2023-02-11T10:35:37;158337.38;;;-0.85;61.76
42945;BME280;28584;42.636;23.294;2023-02-11T10:38:02;158289.69;;;-1.03;59.96
42945;BME280;28584;42.636;23.294;2023-02-11T10:40:29;158276.50;;;-1.08;59.56
42945;BME280;28584;42.636;23.294;2023-02-11T10:43:00;158322.78;;;-0.90;59.71
42945;BME280;28584;42.636;23.294;2023-02-11T10:45:33;158292.38;;;-1.02;59.67
42945;BME280;28584;42.636;23.294;2023-02-11T10:48:03;158371.75;;;-0.72;60.22
42945;BME280;28584;42.636;23.294;2023-02-11T10:50:32;158389.00;;;-0.65;59.67
42945;BME280;28584;42.636;23.294;2023-02-11T10:53:16;158357.19;;;-0.77;58.89
42945;BME280;28584;42.636;23.294;2023-02-11T10:56:03;158399.56;;;-0.61;58.38
42945;BME280;28584;42.636;23.294;2023-02-11T10:58:36;158444.59;;;-0.44;58.64
42945;BME280;28584;42.636;23.294;2023-02-11T11:01:04;158461.78;;;-0.38;57.62
42945;BME280;28584;42.636;23.294;2023-02-11T11:03:34;158453.81;;;-0.41;57.20
42945;BME280;28584;42.636;23.294;2023-02-11T11:06:03;158475.03;;;-0.33;57.70
42945;BME280;28584;42.636;23.294;2023-02-11T11:08:42;158404.84;;;-0.59;57.49
42945;BME280;28584;42.636;23.294;2023-02-11T11:11:19;158468.38;;;-0.35;58.29
42945;BME280;28584;42.636;23.294;2023-02-11T11:18:52;158406.19;;;-0.59;58.98
42945;BME280;28584;42.636;23.294;2023-02-11T11:21:24;158416.75;;;-0.55;59.80
42945;BME280;28584;42.636;23.294;2023-02-11T11:23:53;158394.25;;;-0.63;59.55
42945;BME280;28584;42.636;23.294;2023-02-11T11:26:20;158504.16;;;-0.22;60.54
42945;BME280;28584;42.636;23.294;2023-02-11T11:29:06;158539.91;;;-0.08;60.58
42945;BME280;28584;42.636;23.294;2023-02-11T11:31:44;158514.75;;;-0.18;59.22
42945;BME280;28584;42.636;23.294;2023-02-11T11:34:43;158527.97;;;-0.13;59.45
42945;BME280;28584;42.636;23.294;2023-02-11T11:37:19;158509.44;;;-0.20;59.31
42945;BME280;28584;42.636;23.294;2023-02-11T11:42:41;158602.13;;;0.16;59.19
42945;BME280;28584;42.636;23.294;2023-02-11T11:47:53;158538.59;;;-0.09;58.66
42945;BME280;28584;42.636;23.294;2023-02-11T11:50:34;158596.84;;;0.14;59.00
42945;BME280;28584;42.636;23.294;2023-02-11T11:53:09;158623.34;;;0.24;58.73
42945;BME280;28584;42.636;23.294;2023-02-11T11:55:42;158578.31;;;0.07;58.69
42945;BME280;28584;42.636;23.294;2023-02-11T11:58:17;158647.16;;;0.33;58.72
42945;BME280;28584;42.636;23.294;2023-02-11T12:00:46;158627.31;;;0.25;57.57
42945;BME280;28584;42.636;23.294;2023-02-11T12:08:43;158708.13;;;0.56;57.77
42945;BME280;28584;42.636;23.294;2023-02-11T12:16:32;158794.28;;;0.88;57.55
42945;BME280;28584;42.636;23.294;2023-02-11T12:19:21;158808.84;;;0.94;57.31
42945;BME280;28584;42.636;23.294;2023-02-11T12:21:57;158777.06;;;0.82;56.46
42945;BME280;28584;42.636;23.294;2023-02-11T12:32:57;158798.25;;;0.90;55.22
42945;BME280;28584;42.636;23.294;2023-02-11T12:35:27;158739.94;;;0.68;54.12
42945;BME280;28584;42.636;23.294;2023-02-11T12:43:21;158815.47;;;0.96;53.31
42945;BME280;28584;42.636;23.294;2023-02-11T12:51:39;158872.47;;;1.18;54.07
42945;BME280;28584;42.636;23.294;2023-02-11T12:54:32;158884.41;;;1.22;53.56
42945;BME280;28584;42.636;23.294;2023-02-11T12:57:31;158880.44;;;1.21;53.23
42945;BME280;28584;42.636;23.294;2023-02-11T13:00:24;158912.22;;;1.33;53.69
42945;BME280;28584;42.636;23.294;2023-02-11T13:03:06;158906.97;;;1.31;53.71
42945;BME280;28584;42.636;23.294;2023-02-11T13:05:57;158937.47;;;1.42;53.48
42945;BME280;28584;42.636;23.294;2023-02-11T13:08:37;158914.91;;;1.34;53.42
42945;BME280;28584;42.636;23.294;2023-02-11T13:11:11;158941.38;;;1.44;53.90
42945;BME280;28584;42.636;23.294;2023-02-11T13:14:00;158948.06;;;1.46;54.10
42945;BME280;28584;42.636;23.294;2023-02-11T13:16:36;158946.72;;;1.46;53.99
42945;BME280;28584;42.636;23.294;2023-02-11T13:19:13;158925.50;;;1.38;53.58
42945;BME280;28584;42.636;23.294;2023-02-11T13:21:51;158905.63;;;1.30;53.06
42945;BME280;28584;42.636;23.294;2023-02-11T13:27:12;158928.16;;;1.39;53.35
42945;BME280;28584;42.636;23.294;2023-02-11T13:32:20;158933.47;;;1.41;52.70
42945;BME280;28584;42.636;23.294;2023-02-11T13:37:22;158941.38;;;1.44;52.53
42945;BME280;28584;42.636;23.294;2023-02-11T13:39:59;158949.34;;;1.47;53.64
42945;BME280;28584;42.636;23.294;2023-02-11T13:42:25;158986.47;;;1.61;53.57
42945;BME280;28584;42.636;23.294;2023-02-11T13:44:51;158956.03;;;1.49;52.94
42945;BME280;28584;42.636;23.294;2023-02-11T13:47:36;158937.47;;;1.42;52.76
42945;BME280;28584;42.636;23.294;2023-02-11T13:50:05;158934.78;;;1.41;52.42
42945;BME280;28584;42.636;23.294;2023-02-11T13:52:36;158952.03;;;1.48;52.48
42945;BME280;28584;42.636;23.294;2023-02-11T13:55:20;158981.22;;;1.59;52.79
42945;BME280;28584;42.636;23.294;2023-02-11T14:09:05;158800.88;;;0.91;56.96
42945;BME280;28584;42.636;23.294;2023-02-11T14:22:11;158578.31;;;0.07;58.90
42945;BME280;28584;42.636;23.294;2023-02-11T14:41:22;158444.59;;;-0.44;60.35
42945;BME280;28584;42.636;23.294;2023-02-11T14:43:52;158432.66;;;-0.49;60.39
42945;BME280;28584;42.636;23.294;2023-02-11T14:46:20;158440.59;;;-0.46;60.03
42945;BME280;28584;42.636;23.294;2023-02-11T14:48:48;158469.72;;;-0.35;59.49
42945;BME280;28584;42.636;23.294;2023-02-11T14:51:30;158484.28;;;-0.29;59.40
42945;BME280;28584;42.636;23.294;2023-02-11T14:53:59;158473.69;;;-0.33;60.01
42945;BME280;28584;42.636;23.294;2023-02-11T14:56:28;158432.66;;;-0.49;59.66
42945;BME280;28584;42.636;23.294;2023-02-11T14:58:59;158424.72;;;-0.52;59.98
42945;BME280;28584;42.636;23.294;2023-02-11T15:01:40;158430.03;;;-0.50;59.76
42945;BME280;28584;42.636;23.294;2023-02-11T15:04:22;158431.31;;;-0.49;59.78
42945;BME280;28584;42.636;23.294;2023-02-11T15:06:49;158448.56;;;-0.43;59.21
42945;BME280;28584;42.636;23.294;2023-02-11T15:09:41;158453.81;;;-0.41;58.21
42945;BME280;28584;42.636;23.294;2023-02-11T15:12:25;158464.41;;;-0.37;57.53
42945;BME280;28584;42.636;23.294;2023-02-11T15:14:54;158424.72;;;-0.52;58.30